aviador You're here:

KIPJ Decoded Metar

LINCOLNTON in NC, USA
Report Time2017-03-25 17:15:00
UTC Time2017-03-25 17:25:17
Flight Rules vfr VFR
Wind230° at 08 kt
W.Decomp.*RWY 23: 8.0 kt HW 0.8 kt RCW
W.Rank230° ranks 1
Current wind is above 230° avg. (6.2)
Visibility9999 m
Phenomena:N/A
Clouds:Scattered 040 Hf
Overcast 048 Hf
Expected CloudBase > 4,400 ft AGL from Temp-Dew spread
Ceiling4,800 ft
Temp20°C (ISA +7)
Dew Point09°C (49% RH)
AAT16.9°C
QNH1026 hPa
Density Alt1,385 ft
Elevation876 ft
Report Wrong Elevation
Raw Report
KIPJ 251715Z AUTO 23008KT 10SM SCT040 OVC048 20/09 A3030=

Extra information for KIPJ:More info

Metar Taf Metar & Taf Last 4 Metars F.Rules Stats Wind Profile Meteogram Temp Stats Airport Information Weather charts Add Link Nearby VenuesMetar ALERT Operation Metar Decoded Social comments

AIRNAV info for KIPJ